sensor_id;sensor_type;location;lat;lon;timestamp;P1;durP1;ratioP1;P2;durP2;ratioP2
20314;SDS011;10315;50.958;13.080;2023-02-23T00:03:42;30.17;;;12.07;;
20314;SDS011;10315;50.958;13.080;2023-02-23T00:13:47;27.63;;;11.60;;
20314;SDS011;10315;50.958;13.080;2023-02-23T00:23:50;25.43;;;11.70;;
20314;SDS011;10315;50.958;13.080;2023-02-23T00:33:56;25.10;;;11.20;;
20314;SDS011;10315;50.958;13.080;2023-02-23T00:43:59;22.77;;;10.17;;
20314;SDS011;10315;50.958;13.080;2023-02-23T00:54:02;22.63;;;9.40;;
20314;SDS011;10315;50.958;13.080;2023-02-23T01:04:05;19.43;;;9.43;;
20314;SDS011;10315;50.958;13.080;2023-02-23T01:14:09;23.87;;;10.73;;
20314;SDS011;10315;50.958;13.080;2023-02-23T01:24:11;22.33;;;9.43;;
20314;SDS011;10315;50.958;13.080;2023-02-23T01:34:14;26.37;;;10.93;;
20314;SDS011;10315;50.958;13.080;2023-02-23T01:54:57;21.97;;;10.17;;
20314;SDS011;10315;50.958;13.080;2023-02-23T02:04:58;19.33;;;8.53;;
20314;SDS011;10315;50.958;13.080;2023-02-23T02:15:07;19.47;;;8.10;;
20314;SDS011;10315;50.958;13.080;2023-02-23T02:25:19;18.50;;;8.70;;
20314;SDS011;10315;50.958;13.080;2023-02-23T02:35:37;18.73;;;8.90;;
20314;SDS011;10315;50.958;13.080;2023-02-23T02:46:02;19.40;;;8.87;;
20314;SDS011;10315;50.958;13.080;2023-02-23T02:56:10;15.87;;;8.47;;
20314;SDS011;10315;50.958;13.080;2023-02-23T03:06:15;21.40;;;9.63;;
20314;SDS011;10315;50.958;13.080;2023-02-23T03:16:58;17.37;;;8.77;;
20314;SDS011;10315;50.958;13.080;2023-02-23T03:27:25;18.07;;;9.50;;
20314;SDS011;10315;50.958;13.080;2023-02-23T03:37:55;13.97;;;7.77;;
20314;SDS011;10315;50.958;13.080;2023-02-23T03:48:35;17.17;;;7.97;;
20314;SDS011;10315;50.958;13.080;2023-02-23T03:58:56;17.60;;;8.13;;
20314;SDS011;10315;50.958;13.080;2023-02-23T04:09:19;17.67;;;8.27;;
20314;SDS011;10315;50.958;13.080;2023-02-23T04:19:47;17.63;;;8.77;;
20314;SDS011;10315;50.958;13.080;2023-02-23T04:29:53;20.03;;;8.97;;
20314;SDS011;10315;50.958;13.080;2023-02-23T04:39:54;18.80;;;8.87;;
20314;SDS011;10315;50.958;13.080;2023-02-23T04:49:57;17.30;;;8.53;;
20314;SDS011;10315;50.958;13.080;2023-02-23T05:00:02;21.13;;;9.13;;
20314;SDS011;10315;50.958;13.080;2023-02-23T05:10:06;17.37;;;8.53;;
20314;SDS011;10315;50.958;13.080;2023-02-23T05:20:09;20.37;;;9.70;;
20314;SDS011;10315;50.958;13.080;2023-02-23T05:30:14;19.87;;;9.53;;
20314;SDS011;10315;50.958;13.080;2023-02-23T05:40:16;21.57;;;9.67;;
20314;SDS011;10315;50.958;13.080;2023-02-23T05:50:24;22.93;;;10.43;;
20314;SDS011;10315;50.958;13.080;2023-02-23T06:00:26;19.20;;;9.83;;
20314;SDS011;10315;50.958;13.080;2023-02-23T06:10:28;25.33;;;10.17;;
20314;SDS011;10315;50.958;13.080;2023-02-23T06:20:30;20.60;;;9.50;;
20314;SDS011;10315;50.958;13.080;2023-02-23T06:30:55;19.20;;;9.43;;
20314;SDS011;10315;50.958;13.080;2023-02-23T06:40:57;21.47;;;9.40;;
20314;SDS011;10315;50.958;13.080;2023-02-23T06:51:00;20.00;;;9.07;;
20314;SDS011;10315;50.958;13.080;2023-02-23T07:01:01;21.57;;;8.83;;
20314;SDS011;10315;50.958;13.080;2023-02-23T07:11:08;18.73;;;9.07;;
20314;SDS011;10315;50.958;13.080;2023-02-23T07:21:10;18.97;;;9.30;;
20314;SDS011;10315;50.958;13.080;2023-02-23T07:31:13;26.93;;;9.97;;
20314;SDS011;10315;50.958;13.080;2023-02-23T07:41:15;17.43;;;9.20;;
20314;SDS011;10315;50.958;13.080;2023-02-23T07:51:21;19.63;;;9.57;;
20314;SDS011;10315;50.958;13.080;2023-02-23T08:01:32;20.43;;;8.80;;
20314;SDS011;10315;50.958;13.080;2023-02-23T08:11:41;17.27;;;9.03;;
20314;SDS011;10315;50.958;13.080;2023-02-23T08:21:44;17.77;;;8.27;;
20314;SDS011;10315;50.958;13.080;2023-02-23T08:31:46;19.10;;;10.03;;
20314;SDS011;10315;50.958;13.080;2023-02-23T08:41:50;17.40;;;9.23;;
20314;SDS011;10315;50.958;13.080;2023-02-23T08:51:55;18.23;;;8.77;;
20314;SDS011;10315;50.958;13.080;2023-02-23T09:01:57;17.53;;;8.40;;
20314;SDS011;10315;50.958;13.080;2023-02-23T09:12:00;19.47;;;8.17;;
20314;SDS011;10315;50.958;13.080;2023-02-23T09:22:02;14.17;;;7.23;;
20314;SDS011;10315;50.958;13.080;2023-02-23T09:32:05;14.90;;;7.67;;
20314;SDS011;10315;50.958;13.080;2023-02-23T09:42:19;15.17;;;7.50;;
20314;SDS011;10315;50.958;13.080;2023-02-23T09:52:35;12.43;;;6.23;;
20314;SDS011;10315;50.958;13.080;2023-02-23T10:13:12;14.83;;;7.50;;
20314;SDS011;10315;50.958;13.080;2023-02-23T10:23:22;12.75;;;7.22;;
20314;SDS011;10315;50.958;13.080;2023-02-23T10:33:32;12.23;;;7.78;;
20314;SDS011;10315;50.958;13.080;2023-02-23T10:43:37;14.32;;;7.53;;
20314;SDS011;10315;50.958;13.080;2023-02-23T10:53:43;17.13;;;8.25;;
20314;SDS011;10315;50.958;13.080;2023-02-23T11:03:58;14.68;;;8.45;;
20314;SDS011;10315;50.958;13.080;2023-02-23T11:14:21;15.93;;;8.77;;
20314;SDS011;10315;50.958;13.080;2023-02-23T11:24:31;14.48;;;8.93;;
20314;SDS011;10315;50.958;13.080;2023-02-23T11:34:36;16.02;;;8.48;;
20314;SDS011;10315;50.958;13.080;2023-02-23T11:44:39;18.60;;;9.50;;
20314;SDS011;10315;50.958;13.080;2023-02-23T11:54:46;19.52;;;10.52;;
20314;SDS011;10315;50.958;13.080;2023-02-23T12:05:00;16.65;;;9.68;;
20314;SDS011;10315;50.958;13.080;2023-02-23T12:15:10;21.15;;;10.73;;
20314;SDS011;10315;50.958;13.080;2023-02-23T12:25:20;22.70;;;11.57;;
20314;SDS011;10315;50.958;13.080;2023-02-23T12:35:28;22.48;;;11.05;;
20314;SDS011;10315;50.958;13.080;2023-02-23T12:45:42;25.05;;;11.98;;
20314;SDS011;10315;50.958;13.080;2023-02-23T12:56:02;25.20;;;12.48;;
20314;SDS011;10315;50.958;13.080;2023-02-23T13:06:15;23.40;;;13.15;;
20314;SDS011;10315;50.958;13.080;2023-02-23T13:16:31;30.37;;;13.77;;
20314;SDS011;10315;50.958;13.080;2023-02-23T13:26:44;28.60;;;14.20;;
20314;SDS011;10315;50.958;13.080;2023-02-23T13:36:53;32.37;;;15.03;;
20314;SDS011;10315;50.958;13.080;2023-02-23T13:46:57;28.10;;;14.18;;
20314;SDS011;10315;50.958;13.080;2023-02-23T13:57:12;30.10;;;15.07;;
20314;SDS011;10315;50.958;13.080;2023-02-23T14:07:16;31.77;;;16.00;;
20314;SDS011;10315;50.958;13.080;2023-02-23T14:27:56;31.40;;;16.85;;
20314;SDS011;10315;50.958;13.080;2023-02-23T14:38:02;42.37;;;18.57;;
20314;SDS011;10315;50.958;13.080;2023-02-23T14:48:10;35.35;;;17.48;;
20314;SDS011;10315;50.958;13.080;2023-02-23T14:58:20;33.88;;;16.35;;
20314;SDS011;10315;50.958;13.080;2023-02-23T15:08:23;38.63;;;17.37;;
20314;SDS011;10315;50.958;13.080;2023-02-23T15:29:28;37.13;;;17.13;;
20314;SDS011;10315;50.958;13.080;2023-02-23T15:39:33;36.50;;;17.43;;
20314;SDS011;10315;50.958;13.080;2023-02-23T15:49:40;37.80;;;18.03;;
20314;SDS011;10315;50.958;13.080;2023-02-23T15:59:44;41.63;;;19.00;;
20314;SDS011;10315;50.958;13.080;2023-02-23T16:10:01;41.07;;;19.20;;
20314;SDS011;10315;50.958;13.080;2023-02-23T16:20:09;43.13;;;20.00;;
20314;SDS011;10315;50.958;13.080;2023-02-23T16:30:18;49.03;;;22.60;;
20314;SDS011;10315;50.958;13.080;2023-02-23T16:40:22;64.10;;;26.40;;
20314;SDS011;10315;50.958;13.080;2023-02-23T16:50:29;81.33;;;31.13;;
20314;SDS011;10315;50.958;13.080;2023-02-23T17:00:32;99.67;;;34.97;;
20314;SDS011;10315;50.958;13.080;2023-02-23T17:10:35;64.60;;;27.50;;
20314;SDS011;10315;50.958;13.080;2023-02-23T17:20:37;67.77;;;28.57;;
20314;SDS011;10315;50.958;13.080;2023-02-23T17:30:42;65.00;;;24.93;;
20314;SDS011;10315;50.958;13.080;2023-02-23T17:40:44;77.63;;;30.57;;
20314;SDS011;10315;50.958;13.080;2023-02-23T17:50:47;83.13;;;34.13;;
20314;SDS011;10315;50.958;13.080;2023-02-23T18:00:51;84.77;;;32.73;;
20314;SDS011;10315;50.958;13.080;2023-02-23T18:10:56;87.43;;;32.90;;
20314;SDS011;10315;50.958;13.080;2023-02-23T18:20:58;93.20;;;33.10;;
20314;SDS011;10315;50.958;13.080;2023-02-23T18:31:01;96.80;;;33.07;;
20314;SDS011;10315;50.958;13.080;2023-02-23T18:41:04;93.90;;;34.13;;
20314;SDS011;10315;50.958;13.080;2023-02-23T18:51:07;93.60;;;39.27;;
20314;SDS011;10315;50.958;13.080;2023-02-23T19:01:13;72.33;;;28.80;;
20314;SDS011;10315;50.958;13.080;2023-02-23T19:11:21;90.80;;;36.10;;
20314;SDS011;10315;50.958;13.080;2023-02-23T19:21:24;90.97;;;30.13;;
20314;SDS011;10315;50.958;13.080;2023-02-23T19:31:27;94.30;;;30.33;;
20314;SDS011;10315;50.958;13.080;2023-02-23T19:41:29;86.90;;;30.90;;
20314;SDS011;10315;50.958;13.080;2023-02-23T19:51:33;91.63;;;34.23;;
20314;SDS011;10315;50.958;13.080;2023-02-23T20:01:35;79.30;;;28.50;;
20314;SDS011;10315;50.958;13.080;2023-02-23T20:11:43;74.57;;;28.73;;
20314;SDS011;10315;50.958;13.080;2023-02-23T20:21:44;81.23;;;30.23;;
20314;SDS011;10315;50.958;13.080;2023-02-23T20:31:48;73.60;;;30.03;;
20314;SDS011;10315;50.958;13.080;2023-02-23T20:41:51;83.07;;;30.30;;
20314;SDS011;10315;50.958;13.080;2023-02-23T20:52:03;84.13;;;30.47;;
20314;SDS011;10315;50.958;13.080;2023-02-23T21:02:06;96.53;;;33.90;;
20314;SDS011;10315;50.958;13.080;2023-02-23T21:12:11;107.97;;;36.77;;
20314;SDS011;10315;50.958;13.080;2023-02-23T21:22:12;125.97;;;41.37;;
20314;SDS011;10315;50.958;13.080;2023-02-23T21:32:17;132.30;;;44.40;;
20314;SDS011;10315;50.958;13.080;2023-02-23T21:42:19;123.83;;;40.93;;
20314;SDS011;10315;50.958;13.080;2023-02-23T21:52:24;126.23;;;40.13;;
20314;SDS011;10315;50.958;13.080;2023-02-23T22:02:30;129.30;;;41.13;;
20314;SDS011;10315;50.958;13.080;2023-02-23T22:12:33;146.27;;;44.53;;
20314;SDS011;10315;50.958;13.080;2023-02-23T22:22:35;99.57;;;33.73;;
20314;SDS011;10315;50.958;13.080;2023-02-23T22:32:38;81.40;;;27.50;;
20314;SDS011;10315;50.958;13.080;2023-02-23T22:42:42;66.30;;;24.80;;
20314;SDS011;10315;50.958;13.080;2023-02-23T22:52:48;72.37;;;24.93;;
20314;SDS011;10315;50.958;13.080;2023-02-23T23:02:49;67.03;;;24.40;;
20314;SDS011;10315;50.958;13.080;2023-02-23T23:12:55;73.97;;;25.93;;
20314;SDS011;10315;50.958;13.080;2023-02-23T23:22:58;73.23;;;26.10;;
20314;SDS011;10315;50.958;13.080;2023-02-23T23:33:03;65.57;;;25.47;;
20314;SDS011;10315;50.958;13.080;2023-02-23T23:43:04;71.83;;;25.63;;
20314;SDS011;10315;50.958;13.080;2023-02-23T23:53:24;89.07;;;29.60;;
